createdAt,value
2018-04-01T00:00:03.030Z,0.00
2018-04-01T00:01:03.258Z,0.00
2018-04-01T00:02:02.935Z,0.00
2018-04-01T00:03:02.911Z,0.00
2018-04-01T00:04:02.983Z,0.00
2018-04-01T00:05:02.911Z,0.00
2018-04-01T00:06:02.841Z,0.00
2018-04-01T00:07:03.113Z,0.00
2018-04-01T00:08:02.795Z,0.00
2018-04-01T00:09:02.770Z,0.00
2018-04-01T00:10:02.796Z,0.00
2018-04-01T00:11:02.722Z,0.00
2018-04-01T00:12:02.698Z,0.00
2018-04-01T00:14:02.960Z,0.00
2018-04-01T00:15:02.635Z,0.00
2018-04-01T00:16:02.660Z,0.00
2018-04-01T00:17:02.584Z,0.00
2018-04-01T00:18:02.558Z,0.00
2018-04-01T00:19:02.530Z,0.00
2018-04-01T00:20:02.860Z,0.00
2018-04-01T00:21:02.488Z,0.00
2018-04-01T00:22:02.464Z,0.00
2018-04-01T00:23:02.435Z,0.00
2018-04-01T00:24:02.417Z,0.00
2018-04-01T00:25:02.390Z,0.00
2018-04-01T00:26:02.869Z,0.00
2018-04-01T00:27:02.342Z,0.00
2018-04-01T00:28:02.332Z,0.00
2018-04-01T00:29:02.295Z,0.00
2018-04-01T00:30:02.284Z,0.00
2018-04-01T00:31:02.255Z,0.00
2018-04-01T00:32:02.330Z,0.00
2018-04-01T00:33:02.507Z,0.00
2018-04-01T00:34:02.246Z,0.00
2018-04-01T00:35:02.160Z,0.00
2018-04-01T00:36:02.136Z,0.00
2018-04-01T00:37:02.114Z,0.00
2018-04-01T00:38:02.087Z,0.00
2018-04-01T00:39:02.122Z,0.00
2018-04-01T00:40:02.336Z,0.00
2018-04-01T00:41:02.019Z,0.00
2018-04-01T00:42:01.988Z,0.00
2018-04-01T00:43:01.966Z,0.00
2018-04-01T00:44:02.042Z,0.00
2018-04-01T00:45:02.024Z,0.00
2018-04-01T00:46:01.898Z,0.00
2018-04-01T00:47:02.179Z,0.00
2018-04-01T00:48:01.853Z,0.00
2018-04-01T00:49:01.832Z,0.00
2018-04-01T00:50:01.800Z,0.00
2018-04-01T00:51:01.825Z,0.00
2018-04-01T00:52:01.755Z,0.00
2018-04-01T00:53:01.727Z,0.00
2018-04-01T00:54:02.012Z,0.00
2018-04-01T00:55:01.700Z,0.00
2018-04-01T00:56:01.660Z,0.00
2018-04-01T00:57:01.685Z,0.00
2018-04-01T00:58:01.617Z,0.00
2018-04-01T00:59:01.588Z,0.00
2018-04-01T01:00:01.579Z,0.00
2018-04-01T01:01:01.892Z,0.00
2018-04-01T01:02:01.522Z,0.00
2018-04-01T01:03:01.493Z,0.00
2018-04-01T01:04:01.471Z,0.00
2018-04-01T01:05:01.454Z,0.00
2018-04-01T01:06:01.520Z,0.00
2018-04-01T01:07:01.399Z,0.00
2018-04-01T01:08:01.681Z,0.00
2018-04-01T01:09:01.451Z,0.00
2018-04-01T01:10:01.328Z,0.00
2018-04-01T01:12:01.332Z,0.00
2018-04-01T01:13:01.261Z,0.00
2018-04-01T01:14:01.246Z,0.00
2018-04-01T01:15:01.515Z,0.00
2018-04-01T01:16:01.243Z,0.00
2018-04-01T01:17:01.165Z,0.00
2018-04-01T01:18:01.322Z,0.00
2018-04-01T01:19:01.115Z,0.00
2018-04-01T01:20:01.098Z,0.00
2018-04-01T01:21:01.376Z,0.00
2018-04-01T01:22:01.057Z,0.00
2018-04-01T01:23:01.072Z,0.00
2018-04-01T01:24:01.011Z,0.00
2018-04-01T01:25:00.976Z,0.00
2018-04-01T01:26:01.058Z,0.00
2018-04-01T01:28:01.209Z,0.00
2018-04-01T01:29:00.879Z,0.00
2018-04-01T01:30:00.861Z,0.00
2018-04-01T01:31:00.843Z,0.00
2018-04-01T01:32:00.913Z,0.00
2018-04-01T01:33:00.785Z,0.00
2018-04-01T01:34:01.063Z,0.00
2018-04-01T01:35:00.845Z,0.00
2018-04-01T01:36:00.722Z,0.00
2018-04-01T01:37:00.691Z,0.00
2018-04-01T01:38:00.667Z,0.00
2018-04-01T01:39:00.643Z,0.00
2018-04-01T01:41:00.948Z,0.00
2018-04-01T01:42:00.682Z,0.00
2018-04-01T01:43:00.555Z,0.00
2018-04-01T01:44:00.534Z,0.00
2018-04-01T01:45:01.110Z,0.00
2018-04-01T01:46:00.479Z,0.00
2018-04-01T01:47:00.753Z,0.00
2018-04-01T01:48:00.530Z,0.00
2018-04-01T01:49:00.406Z,0.00
2018-04-01T01:50:00.382Z,0.00
2018-04-01T01:51:00.468Z,0.00
2018-04-01T01:52:00.335Z,0.00
2018-04-01T01:53:00.312Z,0.00
2018-04-01T01:54:00.639Z,0.00
2018-04-01T01:55:00.267Z,0.00
2018-04-01T01:56:00.254Z,0.00
2018-04-01T01:57:00.219Z,0.00
2018-04-01T01:58:00.202Z,0.00
2018-04-01T01:59:00.181Z,0.00
2018-04-01T02:00:00.506Z,0.00
2018-04-01T02:01:00.436Z,0.00
2018-04-01T02:02:00.150Z,0.00
2018-04-01T02:03:00.129Z,0.00
2018-04-01T02:05:00.098Z,0.00
2018-04-01T02:06:00.018Z,0.00
2018-04-01T02:07:00.032Z,0.00
2018-04-01T02:09:00.307Z,0.00
2018-04-01T02:09:59.969Z,0.00
2018-04-01T02:10:59.892Z,0.00
2018-04-01T02:11:59.930Z,0.00
2018-04-01T02:13:00.044Z,0.00
2018-04-01T02:13:59.929Z,0.00
2018-04-01T02:14:59.850Z,0.00
2018-04-01T02:16:00.229Z,0.00
2018-04-01T02:16:59.772Z,0.00
2018-04-01T02:17:59.723Z,0.00
2018-04-01T02:18:59.823Z,0.00
2018-04-01T02:19:59.681Z,0.00
2018-04-01T02:20:59.752Z,0.00
2018-04-01T02:21:59.629Z,0.00
2018-04-01T02:22:59.903Z,0.00
2018-04-01T02:23:59.582Z,0.00
2018-04-01T02:24:59.618Z,0.00
2018-04-01T02:25:59.549Z,0.00
2018-04-01T02:26:59.512Z,0.00
2018-04-01T02:27:59.587Z,0.00
2018-04-01T02:28:59.468Z,0.00
2018-04-01T02:29:59.741Z,0.00
2018-04-01T02:30:59.505Z,0.00
2018-04-01T02:31:59.392Z,0.00
2018-04-01T02:32:59.369Z,0.00
2018-04-01T02:33:59.345Z,0.00
2018-04-01T02:34:59.329Z,0.00
2018-04-01T02:35:59.349Z,0.00
2018-04-01T02:36:59.582Z,0.00
2018-04-01T02:37:59.355Z,0.00
2018-04-01T02:38:59.226Z,0.00
2018-04-01T02:40:59.239Z,0.00
2018-04-01T02:41:59.155Z,0.00
2018-04-01T02:42:59.433Z,0.00
2018-04-01T02:43:59.108Z,0.00
2018-04-01T02:44:59.094Z,0.00
2018-04-01T02:45:59.070Z,0.00
2018-04-01T02:46:59.096Z,0.00
2018-04-01T02:47:59.016Z,0.00
2018-04-01T02:48:59.293Z,0.00
2018-04-01T02:49:58.967Z,0.00
2018-04-01T02:50:58.952Z,0.00
2018-04-01T02:51:59.028Z,0.00
2018-04-01T02:52:58.948Z,0.00
2018-04-01T02:53:58.874Z,0.00
2018-04-01T02:54:59.257Z,0.00
2018-04-01T02:55:58.837Z,0.00
2018-04-01T02:56:58.804Z,0.00
2018-04-01T02:57:58.832Z,0.00
2018-04-01T02:58:58.765Z,0.00
2018-04-01T02:59:58.738Z,0.00
2018-04-01T03:00:59.060Z,0.00
2018-04-01T03:01:58.696Z,0.00
2018-04-01T03:02:58.671Z,0.00
2018-04-01T03:03:58.697Z,0.00
2018-04-01T03:04:58.624Z,0.00
2018-04-01T03:05:58.597Z,0.00
2018-04-01T03:06:58.868Z,0.00
2018-04-01T03:07:58.569Z,0.00
2018-04-01T03:08:58.529Z,0.00
2018-04-01T03:09:58.554Z,0.00
2018-04-01T03:10:58.583Z,0.00
2018-04-01T03:11:58.448Z,0.00
2018-04-01T03:12:58.736Z,0.00
2018-04-01T03:13:58.408Z,0.00
2018-04-01T03:14:58.380Z,0.00
2018-04-01T03:15:58.372Z,0.00
2018-04-01T03:16:58.395Z,0.00
2018-04-01T03:17:58.308Z,0.00
2018-04-01T03:18:58.279Z,0.00
2018-04-01T03:19:58.570Z,0.00
2018-04-01T03:20:58.238Z,0.00
2018-04-01T03:21:58.228Z,0.00
2018-04-01T03:22:58.248Z,0.00
2018-04-01T03:23:58.166Z,0.00
2018-04-01T03:24:58.143Z,0.00
2018-04-01T03:25:58.128Z,0.00
2018-04-01T03:26:58.404Z,0.00
2018-04-01T03:27:58.177Z,0.00
2018-04-01T03:28:58.051Z,0.00
2018-04-01T03:29:58.033Z,0.00
2018-04-01T03:30:58.009Z,0.00
2018-04-01T03:31:57.979Z,0.00
2018-04-01T03:32:58.007Z,0.00
2018-04-01T03:33:58.284Z,0.00
2018-04-01T03:34:57.915Z,0.00
2018-04-01T03:35:57.896Z,0.00
2018-04-01T03:36:57.866Z,0.00
2018-04-01T03:37:57.843Z,0.00
2018-04-01T03:38:57.917Z,0.00
2018-04-01T03:39:57.796Z,0.00
2018-04-01T03:40:58.073Z,0.00
2018-04-01T03:41:57.749Z,0.00
2018-04-01T03:42:57.721Z,0.00
2018-04-01T03:43:57.757Z,0.00
2018-04-01T03:44:57.679Z,0.00
2018-04-01T03:45:57.699Z,0.00
2018-04-01T03:46:57.630Z,0.00
2018-04-01T03:47:57.908Z,0.00
2018-04-01T03:48:57.592Z,0.00
2018-04-01T03:49:57.554Z,0.00
2018-04-01T03:50:57.632Z,0.00
2018-04-01T03:51:57.507Z,0.00
2018-04-01T03:52:57.492Z,0.00
2018-04-01T03:53:57.503Z,0.00
2018-04-01T03:54:57.837Z,0.00
2018-04-01T03:56:57.492Z,0.00
2018-04-01T03:57:57.366Z,0.00
2018-04-01T03:58:57.343Z,0.00
2018-04-01T03:59:57.377Z,0.00
2018-04-01T04:00:57.340Z,0.00
2018-04-01T04:01:57.573Z,0.00
2018-04-01T04:02:57.249Z,0.00
2018-04-01T04:03:57.230Z,0.00
2018-04-01T04:04:57.200Z,0.00
2018-04-01T04:05:57.748Z,0.00
2018-04-01T04:06:57.254Z,0.00
2018-04-01T04:07:57.662Z,0.00
2018-04-01T04:08:57.234Z,0.00
2018-04-01T04:09:57.305Z,0.00
2018-04-01T04:10:57.130Z,0.00
2018-04-01T04:11:57.205Z,0.00
2018-04-01T04:12:57.172Z,0.00
2018-04-01T04:13:57.366Z,0.00
2018-04-01T04:14:57.048Z,0.00
2018-04-01T04:15:57.098Z,0.00
2018-04-01T04:16:56.989Z,0.00
2018-04-01T04:17:56.912Z,0.00
2018-04-01T04:18:56.881Z,0.00
2018-04-01T04:19:57.184Z,0.00
2018-04-01T04:20:56.834Z,0.00
2018-04-01T04:21:56.997Z,0.00
2018-04-01T04:22:56.787Z,0.00
2018-04-01T04:23:56.754Z,0.00
2018-04-01T04:24:56.736Z,0.00
2018-04-01T04:25:57.020Z,0.00
2018-04-01T04:26:56.787Z,4.00
2018-04-01T04:27:56.666Z,4.00
2018-04-01T04:29:56.625Z,0.00
2018-04-01T04:30:56.595Z,4.00
2018-04-01T04:31:56.917Z,4.00
2018-04-01T04:32:56.556Z,8.00
2018-04-01T04:33:56.527Z,4.00
2018-04-01T04:34:56.495Z,8.00
2018-04-01T04:35:56.479Z,8.00
2018-04-01T04:36:56.447Z,8.00
2018-04-01T04:37:56.831Z,8.00
2018-04-01T04:38:56.408Z,12.00
2018-04-01T04:39:56.384Z,12.00
2018-04-01T04:40:56.403Z,12.00
2018-04-01T04:41:56.346Z,16.00
2018-04-01T04:42:56.312Z,20.00
2018-04-01T04:43:56.288Z,24.00
2018-04-01T04:44:56.560Z,24.00
2018-04-01T04:45:56.295Z,28.00
2018-04-01T04:46:56.318Z,32.00
2018-04-01T04:47:56.194Z,32.00
2018-04-01T04:48:56.171Z,40.00
2018-04-01T04:49:56.192Z,44.00
2018-04-01T04:50:56.116Z,48.00
2018-04-01T04:51:56.403Z,52.00
2018-04-01T04:52:56.071Z,60.00
2018-04-01T04:53:56.056Z,60.00
2018-04-01T04:54:56.124Z,76.00
2018-04-01T04:55:56.057Z,68.00
2018-04-01T04:56:56.032Z,84.00
2018-04-01T04:57:56.003Z,76.00
2018-04-01T04:58:56.232Z,84.00
2018-04-01T04:59:55.905Z,84.00
2018-04-01T05:00:55.938Z,100.00
2018-04-01T05:01:55.866Z,100.00
2018-04-01T05:02:55.836Z,92.00
2018-04-01T05:03:55.819Z,100.00
2018-04-01T05:04:55.789Z,116.00
2018-04-01T05:05:56.065Z,108.00
2018-04-01T05:06:55.797Z,116.00
2018-04-01T05:07:55.787Z,132.00
2018-04-01T05:08:55.798Z,144.00
2018-04-01T05:09:55.677Z,136.00
2018-04-01T05:10:55.747Z,152.00
2018-04-01T05:11:55.631Z,168.00
2018-04-01T05:12:55.901Z,164.00
2018-04-01T05:13:55.579Z,196.00
2018-04-01T05:14:55.648Z,220.00
2018-04-01T05:15:55.533Z,240.00
2018-04-01T05:16:55.523Z,236.00
2018-04-01T05:17:55.584Z,244.00
2018-04-01T05:18:55.463Z,248.00
2018-04-01T05:19:55.785Z,192.00
2018-04-01T05:20:55.419Z,220.00
2018-04-01T05:21:55.395Z,224.00
2018-04-01T05:22:55.369Z,232.00
2018-04-01T05:23:55.340Z,272.00
2018-04-01T05:24:55.329Z,252.00
2018-04-01T05:25:55.697Z,264.00
2018-04-01T05:26:55.272Z,300.00
2018-04-01T05:27:55.257Z,316.00
2018-04-01T05:28:55.224Z,300.00
2018-04-01T05:29:55.200Z,308.00
2018-04-01T05:30:55.237Z,316.00
2018-04-01T05:31:55.461Z,352.00
2018-04-01T05:32:55.239Z,352.00
2018-04-01T05:33:55.212Z,408.00
2018-04-01T05:34:55.086Z,528.00
2018-04-01T05:37:55.322Z,536.00
2018-04-01T05:38:55.000Z,728.00
2018-04-01T05:39:55.017Z,944.00
2018-04-01T05:40:54.948Z,776.00
2018-04-01T05:41:54.932Z,684.00
2018-04-01T05:42:54.897Z,864.00
2018-04-01T05:43:55.172Z,820.00
2018-04-01T05:44:54.850Z,840.00
2018-04-01T05:45:54.876Z,744.00
2018-04-01T05:46:54.859Z,716.00
2018-04-01T05:47:54.788Z,1036.00
2018-04-01T05:48:54.757Z,884.00
2018-04-01T05:49:54.738Z,996.00
2018-04-01T05:50:54.709Z,892.00
2018-04-01T05:51:54.691Z,884.00
2018-04-01T05:52:54.716Z,1116.00
2018-04-01T05:53:54.741Z,1316.00
2018-04-01T05:54:54.623Z,1376.00
2018-04-01T05:55:54.893Z,1072.00
2018-04-01T05:56:54.576Z,1012.00
2018-04-01T05:57:54.550Z,1192.00
2018-04-01T05:58:54.632Z,1312.00
2018-04-01T05:59:54.609Z,1132.00
2018-04-01T06:00:54.477Z,1052.00
2018-04-01T06:02:54.738Z,1064.00
2018-04-01T06:03:54.414Z,1164.00
2018-04-01T06:04:54.444Z,1244.00
2018-04-01T06:05:54.369Z,888.00
2018-04-01T06:06:54.350Z,1008.00
2018-04-01T06:09:54.570Z,852.00
2018-04-01T06:10:54.304Z,824.00
2018-04-01T06:11:54.231Z,1060.00
2018-04-01T06:12:54.206Z,944.00
2018-04-01T06:14:54.195Z,1004.00
2018-04-01T06:15:54.253Z,1036.00
2018-04-01T06:16:54.416Z,1352.00
2018-04-01T06:17:54.085Z,1340.00
2018-04-01T06:18:54.127Z,1232.00
2018-04-01T06:19:54.040Z,1508.00
2018-04-01T06:20:54.017Z,1656.00
2018-04-01T06:21:54.048Z,1392.00
2018-04-01T06:22:54.274Z,1488.00
2018-04-01T06:23:54.252Z,1672.00
2018-04-01T06:24:53.934Z,2368.00
2018-04-01T06:26:54.067Z,2312.00
2018-04-01T06:27:54.083Z,2004.00
2018-04-01T06:28:54.163Z,1700.00
2018-04-01T06:29:53.990Z,1716.00
2018-04-01T06:31:54.119Z,1804.00
2018-04-01T06:32:53.745Z,2136.00
2018-04-01T06:33:53.719Z,1848.00
2018-04-01T06:34:53.690Z,1640.00
2018-04-01T06:35:53.719Z,1708.00
2018-04-01T06:36:53.696Z,1776.00
2018-04-01T06:37:53.631Z,1808.00
2018-04-01T06:38:53.902Z,1744.00
2018-04-01T06:39:53.616Z,1772.00
2018-04-01T06:40:53.568Z,1648.00
2018-04-01T06:41:53.542Z,2112.00
2018-04-01T06:46:53.771Z,1516.00
2018-04-01T06:47:53.420Z,1600.00
2018-04-01T06:48:53.380Z,1748.00
2018-04-01T06:49:53.357Z,1732.00
2018-04-01T06:51:53.364Z,1492.00
2018-04-01T06:52:53.282Z,1804.00
2018-04-01T06:53:53.567Z,2016.00
2018-04-01T06:54:53.344Z,1640.00
2018-04-01T06:55:53.223Z,2116.00
2018-04-01T06:56:53.201Z,2708.00
2018-04-01T06:57:53.225Z,2452.00
2018-04-01T06:58:53.153Z,2520.00
2018-04-01T06:59:53.425Z,2924.00
2018-04-01T07:00:53.113Z,2592.00
2018-04-01T07:01:53.090Z,2412.00
2018-04-01T07:02:53.120Z,1684.00
2018-04-01T07:03:53.149Z,1832.00
2018-04-01T07:04:53.195Z,1964.00
2018-04-01T07:07:53.305Z,2500.00
2018-04-01T07:08:52.927Z,2344.00
2018-04-01T07:09:52.901Z,2192.00
2018-04-01T07:11:52.897Z,2676.00
2018-04-01T07:12:52.892Z,2424.00
2018-04-01T07:13:53.130Z,2740.00
2018-04-01T07:14:52.792Z,3256.00
2018-04-01T07:15:52.772Z,3260.00
2018-04-01T07:17:52.717Z,5468.00
2018-04-01T07:18:52.747Z,5076.00
2018-04-01T07:19:54.492Z,4124.00
2018-04-01T07:20:52.653Z,3956.00
2018-04-01T07:21:52.785Z,3428.00
2018-04-01T07:22:52.666Z,4192.00
2018-04-01T07:23:52.647Z,6040.00
2018-04-01T07:24:52.561Z,6688.00
2018-04-01T07:26:53.159Z,4540.00
2018-04-01T07:27:52.509Z,4580.00
2018-04-01T07:28:52.478Z,4588.00
2018-04-01T07:29:52.500Z,5444.00
2018-04-01T07:32:52.685Z,7100.00
2018-04-01T07:34:52.442Z,5180.00
2018-04-01T07:36:52.351Z,5740.00
2018-04-01T07:38:52.815Z,4520.00
2018-04-01T07:39:52.238Z,5508.00
2018-04-01T07:40:52.226Z,4688.00
2018-04-01T07:41:52.183Z,5348.00
2018-04-01T07:42:52.167Z,6216.00
2018-04-01T07:43:57.189Z,4452.00
2018-04-01T07:44:52.219Z,4148.00
2018-04-01T07:45:52.410Z,4336.00
2018-04-01T07:46:52.137Z,5124.00
2018-04-01T07:47:52.188Z,5788.00
2018-04-01T07:48:52.047Z,5252.00
2018-04-01T07:49:52.023Z,5356.00
2018-04-01T07:50:52.092Z,4476.00
2018-04-01T07:52:52.252Z,5480.00
2018-04-01T07:53:51.976Z,5528.00
2018-04-01T07:54:51.912Z,4692.00
2018-04-01T07:55:51.887Z,4696.00
2018-04-01T07:56:51.861Z,6856.00
2018-04-01T07:57:51.903Z,6032.00
2018-04-01T07:59:52.096Z,8324.00
2018-04-01T08:00:51.776Z,8500.00
2018-04-01T08:01:51.757Z,8336.00
2018-04-01T08:02:51.739Z,8964.00
2018-04-01T08:03:51.811Z,11656.00
2018-04-01T08:04:51.690Z,9444.00
2018-04-01T08:05:51.692Z,8844.00
2018-04-01T08:06:51.947Z,8084.00
2018-04-01T08:07:51.631Z,8132.00
2018-04-01T08:08:51.613Z,11252.00
2018-04-01T08:09:51.636Z,10392.00
2018-04-01T08:10:51.564Z,7900.00
2018-04-01T08:11:51.551Z,8404.00
2018-04-01T08:12:51.632Z,12524.00
2018-04-01T08:13:51.805Z,14224.00
2018-04-01T08:14:51.488Z,14228.00
2018-04-01T08:15:51.527Z,16448.00
2018-04-01T08:16:51.442Z,10760.00
2018-04-01T08:18:51.401Z,12240.00
2018-04-01T08:19:51.440Z,11148.00
2018-04-01T08:20:51.663Z,10224.00
2018-04-01T08:21:51.351Z,6868.00
2018-04-01T08:22:51.636Z,6200.00
2018-04-01T08:23:51.304Z,5304.00
2018-04-01T08:24:51.335Z,5652.00
2018-04-01T08:25:51.466Z,5664.00
2018-04-01T08:26:51.553Z,5108.00
2018-04-01T08:27:51.285Z,4696.00
2018-04-01T08:28:51.215Z,5412.00
2018-04-01T08:29:51.191Z,6140.00
2018-04-01T08:30:51.165Z,6316.00
2018-04-01T08:31:51.154Z,5740.00
2018-04-01T08:32:51.440Z,6296.00
2018-04-01T08:33:51.215Z,6340.00
2018-04-01T08:34:51.188Z,5840.00
2018-04-01T08:35:51.078Z,6080.00
2018-04-01T08:36:51.061Z,5976.00
2018-04-01T08:37:51.034Z,7328.00
2018-04-01T08:38:51.312Z,7300.00
2018-04-01T08:39:51.085Z,7148.00
2018-04-01T08:40:50.966Z,6188.00
2018-04-01T08:41:50.947Z,6700.00
2018-04-01T08:42:51.031Z,7256.00
2018-04-01T08:44:51.249Z,9684.00
2018-04-01T08:45:51.021Z,7556.00
2018-04-01T08:46:50.846Z,7196.00
2018-04-01T08:47:50.829Z,6452.00
2018-04-01T08:48:50.833Z,8208.00
2018-04-01T08:49:50.893Z,12532.00
2018-04-01T08:50:51.067Z,11456.00
2018-04-01T08:51:50.794Z,10468.00
2018-04-01T08:52:50.748Z,9880.00
2018-04-01T08:53:50.699Z,9072.00
2018-04-01T08:54:50.780Z,9192.00
2018-04-01T08:55:50.662Z,7192.00
2018-04-01T08:56:50.778Z,6904.00
2018-04-01T08:57:50.920Z,6860.00
2018-04-01T08:58:50.601Z,6076.00
2018-04-01T08:59:50.584Z,6540.00
2018-04-01T09:00:50.912Z,5280.00
2018-04-01T09:01:50.539Z,5156.00
2018-04-01T09:02:50.529Z,7312.00
2018-04-01T09:04:50.787Z,6908.00
2018-04-01T09:05:50.467Z,6540.00
2018-04-01T09:06:50.639Z,6716.00
2018-04-01T09:07:50.424Z,6004.00
2018-04-01T09:08:50.406Z,5396.00
2018-04-01T09:09:50.390Z,6644.00
2018-04-01T09:10:50.358Z,6300.00
2018-04-01T09:11:50.642Z,6480.00
2018-04-01T09:12:50.366Z,6788.00
2018-04-01T09:13:50.313Z,7192.00
2018-04-01T09:14:50.336Z,7952.00
2018-04-01T09:16:50.241Z,8972.00
2018-04-01T09:17:50.215Z,10072.00
2018-04-01T09:18:50.546Z,10744.00
2018-04-01T09:19:50.189Z,11064.00
2018-04-01T09:20:50.160Z,12192.00
2018-04-01T09:22:50.166Z,6764.00
2018-04-01T09:23:50.092Z,7980.00
2018-04-01T09:24:50.073Z,11012.00
2018-04-01T09:25:50.354Z,9336.00
2018-04-01T09:26:50.088Z,10252.00
2018-04-01T09:27:50.024Z,8080.00
2018-04-01T09:28:50.043Z,7692.00
2018-04-01T09:29:50.031Z,10356.00
2018-04-01T09:31:50.230Z,9684.00
2018-04-01T09:32:49.920Z,8152.00
2018-04-01T09:34:49.989Z,6912.00
2018-04-01T09:35:49.857Z,6560.00
2018-04-01T09:36:49.901Z,5628.00
2018-04-01T09:37:49.812Z,5768.00
2018-04-01T09:38:50.145Z,8032.00
2018-04-01T09:39:49.781Z,10380.00
2018-04-01T09:40:49.810Z,12540.00
2018-04-01T09:41:49.743Z,13208.00
2018-04-01T09:42:49.710Z,13288.00
2018-04-01T09:43:49.697Z,12636.00
2018-04-01T09:44:49.971Z,11696.00
2018-04-01T09:45:49.651Z,9032.00
2018-04-01T09:48:49.643Z,7156.00
2018-04-01T09:49:49.640Z,6660.00
2018-04-01T09:50:49.854Z,6176.00
2018-04-01T09:51:49.530Z,6636.00
2018-04-01T09:52:49.519Z,7440.00
2018-04-01T09:53:49.493Z,6976.00
2018-04-01T09:54:49.678Z,7796.00
2018-04-01T09:55:49.454Z,7220.00
2018-04-01T09:56:50.059Z,5796.00
2018-04-01T09:57:49.421Z,6564.00
2018-04-01T09:58:49.395Z,7896.00
2018-04-01T09:59:49.372Z,7440.00
2018-04-01T10:00:49.406Z,11180.00
2018-04-01T10:01:49.336Z,13252.00
2018-04-01T10:02:49.614Z,11920.00
2018-04-01T10:04:49.274Z,6808.00
2018-04-01T10:05:49.258Z,6180.00
2018-04-01T10:06:49.295Z,6884.00
2018-04-01T10:07:49.214Z,7280.00
2018-04-01T10:08:49.558Z,7924.00
2018-04-01T10:11:49.145Z,8320.00
2018-04-01T10:12:49.719Z,8236.00
2018-04-01T10:13:49.102Z,7440.00
2018-04-01T10:14:49.374Z,6204.00
2018-04-01T10:15:49.058Z,6572.00
2018-04-01T10:16:49.067Z,6764.00
2018-04-01T10:17:49.034Z,7064.00
2018-04-01T10:18:49.044Z,6748.00
2018-04-01T10:19:48.973Z,5764.00
2018-04-01T10:20:48.962Z,5192.00
2018-04-01T10:22:49.270Z,6116.00
2018-04-01T10:23:48.903Z,7712.00
2018-04-01T10:24:48.874Z,7648.00
2018-04-01T10:25:48.906Z,8136.00
2018-04-01T10:26:48.840Z,8216.00
2018-04-01T10:28:49.104Z,5328.00
2018-04-01T10:29:48.781Z,5612.00
2018-04-01T10:30:48.853Z,7064.00
2018-04-01T10:31:48.742Z,8888.00
2018-04-01T10:32:48.716Z,9564.00
2018-04-01T10:33:48.698Z,9664.00
2018-04-01T10:34:48.684Z,8728.00
2018-04-01T10:35:48.957Z,8172.00
2018-04-01T10:36:48.743Z,8048.00
2018-04-01T10:37:48.627Z,7040.00
2018-04-01T10:38:48.602Z,6120.00
2018-04-01T10:39:48.576Z,5364.00
2018-04-01T10:41:48.921Z,4820.00
2018-04-01T10:42:48.519Z,4888.00
2018-04-01T10:43:48.496Z,4628.00
2018-04-01T10:44:48.480Z,4652.00
2018-04-01T10:45:48.559Z,5220.00
2018-04-01T10:46:48.436Z,5364.00
2018-04-01T10:47:48.517Z,5840.00
2018-04-01T10:48:48.694Z,5652.00
2018-04-01T10:49:48.377Z,5980.00
2018-04-01T10:50:48.470Z,6784.00
2018-04-01T10:51:48.434Z,7320.00
2018-04-01T10:52:48.337Z,6788.00
2018-04-01T10:53:48.304Z,6544.00
2018-04-01T10:54:48.272Z,6364.00
2018-04-01T10:55:48.565Z,6120.00
2018-04-01T10:56:48.339Z,7232.00
2018-04-01T10:57:48.222Z,7272.00
2018-04-01T10:58:48.204Z,7664.00
2018-04-01T10:59:48.274Z,7964.00
2018-04-01T11:00:48.158Z,10104.00
2018-04-01T11:01:48.139Z,7400.00
2018-04-01T11:02:48.461Z,7728.00
2018-04-01T11:03:48.098Z,7584.00
2018-04-01T11:04:48.171Z,9108.00
2018-04-01T11:05:48.073Z,9612.00
2018-04-01T11:06:48.191Z,9656.00
2018-04-01T11:08:48.404Z,9084.00
2018-04-01T11:10:48.021Z,9984.00
2018-04-01T11:11:48.086Z,8572.00
2018-04-01T11:12:47.918Z,6856.00
2018-04-01T11:13:47.906Z,7080.00
2018-04-01T11:14:48.220Z,6112.00
2018-04-01T11:15:47.852Z,6196.00
2018-04-01T11:17:47.811Z,6192.00
2018-04-01T11:18:47.790Z,5484.00
2018-04-01T11:19:47.773Z,5956.00
2018-04-01T11:21:47.782Z,5436.00
2018-04-01T11:22:47.816Z,5480.00
2018-04-01T11:25:48.058Z,4848.00
2018-04-01T11:26:47.629Z,5136.00
2018-04-01T11:27:47.621Z,5088.00
2018-04-01T11:28:47.700Z,4880.00
2018-04-01T11:29:47.880Z,4820.00
2018-04-01T11:30:47.557Z,4624.00
2018-04-01T11:31:47.838Z,4696.00
2018-04-01T11:32:47.616Z,4560.00
2018-04-01T11:33:47.496Z,4556.00
2018-04-01T11:34:47.491Z,4800.00
2018-04-01T11:35:47.454Z,4576.00
2018-04-01T11:36:47.426Z,4844.00
2018-04-01T11:37:47.756Z,6120.00
2018-04-01T11:38:47.381Z,5844.00
2018-04-01T11:39:47.381Z,5636.00
2018-04-01T11:40:47.511Z,6544.00
2018-04-01T11:41:47.330Z,6368.00
2018-04-01T11:42:47.310Z,6056.00
2018-04-01T11:43:47.632Z,6212.00
2018-04-01T11:44:47.261Z,6064.00
2018-04-01T11:45:47.249Z,6168.00
2018-04-01T11:46:47.227Z,6492.00
2018-04-01T11:48:47.230Z,6808.00
2018-04-01T11:49:47.168Z,6116.00
2018-04-01T11:50:47.499Z,6380.00
2018-04-01T11:51:47.123Z,6340.00
2018-04-01T11:52:47.100Z,6248.00
2018-04-01T11:53:47.085Z,5728.00
2018-04-01T11:54:47.241Z,5744.00
2018-04-01T11:55:47.039Z,6504.00
2018-04-01T11:57:47.301Z,6140.00
2018-04-01T11:58:47.080Z,5968.00
2018-04-01T11:59:46.960Z,6384.00
2018-04-01T12:00:47.046Z,10832.00
2018-04-01T12:01:46.915Z,10676.00
2018-04-01T12:02:46.911Z,8368.00
2018-04-01T12:03:46.875Z,7544.00
2018-04-01T12:06:47.261Z,7364.00
2018-04-01T12:07:46.850Z,8384.00
2018-04-01T12:09:46.756Z,7328.00
2018-04-01T12:10:46.744Z,7220.00
2018-04-01T12:11:46.722Z,7648.00
2018-04-01T12:12:46.773Z,8132.00
2018-04-01T12:13:46.979Z,7212.00
2018-04-01T12:14:46.662Z,7044.00
2018-04-01T12:15:46.649Z,7804.00
2018-04-01T12:17:46.607Z,8824.00
2018-04-01T12:18:46.927Z,7584.00
2018-04-01T12:19:46.586Z,5952.00
2018-04-01T12:20:46.846Z,5100.00
2018-04-01T12:21:46.516Z,5220.00
2018-04-01T12:24:46.514Z,4836.00
2018-04-01T12:26:46.730Z,4948.00
2018-04-01T12:27:46.703Z,5448.00
2018-04-01T12:28:46.472Z,7240.00
2018-04-01T12:29:46.358Z,10296.00
2018-04-01T12:31:46.330Z,11104.00
2018-04-01T12:32:46.306Z,8332.00
2018-04-01T12:34:46.412Z,8584.00
2018-04-01T12:36:46.296Z,8648.00
2018-04-01T12:38:46.345Z,6440.00
2018-04-01T12:39:46.269Z,5424.00
2018-04-01T12:40:46.697Z,5128.00
2018-04-01T12:41:46.124Z,5656.00
2018-04-01T12:42:46.104Z,6008.00
2018-04-01T12:43:46.135Z,6356.00
2018-04-01T12:44:46.323Z,7360.00
2018-04-01T12:45:46.053Z,10012.00
2018-04-01T12:46:46.424Z,12108.00
2018-04-01T12:48:45.985Z,11908.00
2018-04-01T12:49:46.068Z,9800.00
2018-04-01T12:50:46.040Z,8784.00
2018-04-01T12:51:45.934Z,8560.00
2018-04-01T12:52:46.262Z,8680.00
2018-04-01T12:53:45.897Z,8380.00
2018-04-01T12:54:45.892Z,8084.00
2018-04-01T12:55:45.849Z,8352.00
2018-04-01T12:57:45.812Z,8260.00
2018-04-01T12:58:46.052Z,6896.00
2018-04-01T12:59:46.074Z,5668.00
2018-04-01T13:00:45.762Z,5192.00
2018-04-01T13:01:45.767Z,4928.00
2018-04-01T13:02:45.825Z,5396.00
2018-04-01T13:03:45.698Z,5728.00
2018-04-01T13:04:45.764Z,5056.00
2018-04-01T13:05:45.960Z,4740.00
2018-04-01T13:06:45.647Z,4744.00
2018-04-01T13:07:45.629Z,4544.00
2018-04-01T13:08:45.611Z,5460.00
2018-04-01T13:09:45.689Z,6972.00
2018-04-01T13:10:45.616Z,7500.00
2018-04-01T13:11:45.553Z,7904.00
2018-04-01T13:14:45.796Z,7792.00
2018-04-01T13:15:45.572Z,6928.00
2018-04-01T13:16:45.455Z,6704.00
2018-04-01T13:17:45.428Z,6660.00
2018-04-01T13:18:45.433Z,6952.00
2018-04-01T13:19:45.503Z,6880.00
2018-04-01T13:20:45.426Z,5704.00
2018-04-01T13:21:45.656Z,5228.00
2018-04-01T13:22:45.337Z,5904.00
2018-04-01T13:23:45.368Z,5988.00
2018-04-01T13:25:46.032Z,6444.00
2018-04-01T13:26:45.261Z,7316.00
2018-04-01T13:28:45.525Z,7084.00
2018-04-01T13:29:45.299Z,6940.00
2018-04-01T13:30:45.174Z,5768.00
2018-04-01T13:31:45.162Z,5160.00
2018-04-01T13:33:45.118Z,4716.00
2018-04-01T13:34:45.148Z,5476.00
2018-04-01T13:35:45.742Z,5360.00
2018-04-01T13:36:45.117Z,7024.00
2018-04-01T13:37:45.045Z,8240.00
2018-04-01T13:41:45.372Z,8308.00
2018-04-01T13:43:45.176Z,6916.00
2018-04-01T13:46:44.877Z,6580.00
2018-04-01T13:47:44.847Z,6972.00
2018-04-01T13:48:45.122Z,10232.00
2018-04-01T13:49:44.869Z,11588.00
2018-04-01T13:50:44.847Z,12060.00
2018-04-01T13:51:44.899Z,10008.00
2018-04-01T13:52:44.765Z,8352.00